METAR Data
IDs: Format: Raw Decoded Include TAF

Data at: 0824 UTC 03 Aug 2021

EPBY 030800Z 26008KT 230V300 9999 FEW027 19/11 Q1014